Time;durP1;ratioP1;P1;durP2;ratioP2;P2;SDS_P1;SDS_P2;PMS_P1;PMS_P2;Temp;Humidity;BMP_temperature;BMP_pressure;BME280_temperature;BME280_humidity;BME280_pressure;Samples;Min_cycle;Max_cycle;Signal;HPM_P1;HPM_P2
2024/01/01 06:38:14;;;;;;;13.30;3.33;;;6.80;99.90;;;;;;4929219;29;20112;-92
2024/01/01 06:41:49;;;;;;;13.50;3.03;;;7.50;99.90;;;;;;4910500;29;20051;-92
2024/01/01 06:58:26;;;;;;;16.88;2.80;;;6.70;99.90;;;;;;4951878;28;20035;-91
2024/01/01 07:12:42;;;;;;;6.83;2.13;;;6.00;99.90;;;;;;4936146;29;20569;-90
2024/01/01 07:16:12;;;;;;;10.13;2.20;;;6.50;99.90;;;;;;4935728;29;20501;-90
2024/01/01 07:19:14;;;;;;;11.77;2.50;;;6.70;99.90;;;;;;4877638;29;20067;-90
2024/01/01 07:30:03;;;;;;;;;;;;;;;;;;;;;
2024/01/01 08:01:17;;;;;;;6.77;2.00;;;6.50;99.90;;;;;;5241044;23;19930;-91
2024/01/01 08:04:08;;;;;;;8.50;2.53;;;6.60;99.90;;;;;;5114981;23;20547;-94
2024/01/01 08:09:36;;;;;;;10.93;2.43;;;6.50;99.90;;;;;;4997886;23;20053;-96
2024/01/01 08:12:07;;;;;;;9.47;2.27;;;7.30;99.90;;;;;;4865749;29;20095;-95
2024/01/01 08:15:40;;;;;;;;;;;;;;;;;;;;;
2024/01/01 08:18:48;;;;;;;12.47;3.50;;;6.50;99.90;;;;;;4756815;30;20099;-96
2024/01/01 08:21:14;;;;;;;16.37;3.50;;;6.50;99.90;;;;;;4832924;23;20032;-93
2024/01/01 08:23:47;;;;;;;13.57;3.20;;;6.40;99.90;;;;;;4930107;29;20146;-96
2024/01/01 08:26:15;;;;;;;14.73;3.50;;;8.10;99.90;;;;;;4927052;29;20036;-89
2024/01/01 08:29:32;;;;;;;12.53;3.30;;;6.10;99.90;;;;;;4945319;23;20031;-96
2024/01/01 08:32:05;;;;;;;14.73;3.07;;;6.70;99.90;;;;;;4944083;29;20178;-92
2024/01/01 08:34:34;;;;;;;14.60;3.33;;;6.60;99.90;;;;;;4939174;29;20115;-92
2024/01/01 08:37:01;;;;;;;13.47;3.50;;;6.80;99.90;;;;;;5217657;23;20018;-91
2024/01/01 08:39:28;;;;;;;11.37;3.33;;;6.70;99.90;;;;;;4937028;29;20047;-91
2024/01/01 08:42:06;;;;;;;12.90;3.53;;;8.50;99.90;;;;;;4939771;29;20123;-90
2024/01/01 08:44:34;;;;;;;15.27;3.60;;;6.60;99.90;;;;;;4941783;29;20187;-91
2024/01/01 08:56:35;;;;;;;11.37;3.27;;;6.70;99.90;;;;;;5177946;23;20058;-92
2024/01/01 09:03:30;;;;;;;;;;;;;;;;;;;;;
2024/01/01 09:10:21;;;;;;;13.87;3.00;;;7.20;99.90;;;;;;5162120;23;20102;-92
2024/01/01 09:12:56;;;;;;;;;;;;;;;;;;;;;
2024/01/01 09:18:42;;;;;;;10.93;2.97;;;6.90;99.90;;;;;;5008060;23;20424;-89
2024/01/01 09:21:41;;;;;;;11.30;3.33;;;6.90;99.90;;;;;;4941820;29;20051;-95
2024/01/01 09:26:48;;;;;;;10.43;2.70;;;6.90;99.90;;;;;;5084613;23;20062;-96
2024/01/01 09:45:13;;;;;;;;;;;;;;;;;;;;;
2024/01/01 11:57:36;;;;;;;6.47;1.80;;;7.00;99.90;;;;;;6068340;23;19936;31
2024/01/01 12:07:10;;;;;;;8.03;1.87;;;7.30;99.90;;;;;;4931312;23;20055;-96
2024/01/01 12:15:51;;;;;;;11.37;2.10;;;6.20;99.90;;;;;;5032729;23;20044;-89
2024/01/01 12:18:42;;;;;;;9.35;2.15;;;7.20;99.90;;;;;;4920714;23;20687;-96
2024/01/01 12:21:09;;;;;;;7.47;2.23;;;7.80;99.90;;;;;;4951655;23;20087;-96
2024/01/01 12:24:31;;;;;;;7.33;2.20;;;8.40;99.90;;;;;;4938163;29;20090;-95
2024/01/01 12:27:14;;;;;;;6.53;1.83;;;7.40;99.90;;;;;;4940776;29;20054;-94
2024/01/01 12:29:50;;;;;;;10.27;2.30;;;9.10;99.90;;;;;;5138692;23;20521;-93
2024/01/01 12:32:31;;;;;;;8.20;2.83;;;7.90;99.90;;;;;;4935996;23;20150;-88
2024/01/01 12:35:00;;;;;;;9.23;2.17;;;8.10;99.90;;;;;;4937839;29;20055;-90
2024/01/01 12:37:27;;;;;;;11.83;2.00;;;8.20;99.90;;;;;;4921781;29;20377;-88
2024/01/01 12:39:52;;;;;;;11.00;1.90;;;8.40;99.90;;;;;;4918928;29;20054;-86
2024/01/01 12:42:18;;;;;;;10.90;3.40;;;8.60;99.90;;;;;;4920126;29;20051;-88
2024/01/01 12:44:49;;;;;;;11.45;2.75;;;9.10;99.90;;;;;;4919660;29;20053;-87
2024/01/01 12:47:34;;;;;;;10.33;2.23;;;8.50;99.90;;;;;;4914143;29;20040;-88
2024/01/01 12:50:06;;;;;;;8.30;1.97;;;8.50;99.90;;;;;;4912979;29;20505;-94
2024/01/01 12:52:35;;;;;;;11.33;2.10;;;7.40;99.90;;;;;;4926481;23;20054;-96
2024/01/01 12:55:16;;;;;;;7.63;1.93;;;8.10;99.90;;;;;;4941135;28;20499;-95
2024/01/01 13:01:46;;;;;;;8.33;1.77;;;6.00;99.90;;;;;;5015545;23;20067;31
2024/01/01 13:05:01;;;;;;;9.30;2.40;;;7.40;99.90;;;;;;4937665;29;20048;-95
2024/01/01 13:08:01;;;;;;;11.27;2.65;;;8.20;99.90;;;;;;4922636;23;20100;-96
2024/01/01 13:10:52;;;;;;;11.87;2.30;;;7.90;99.90;;;;;;4913134;23;20118;-95
2024/01/01 13:13:35;;;;;;;14.43;4.07;;;7.20;99.90;;;;;;4954948;23;20051;-93
2024/01/01 13:16:11;;;;;;;10.70;2.33;;;7.30;99.90;;;;;;4960146;29;20055;-95
2024/01/01 13:18:44;;;;;;;13.43;4.33;;;7.30;99.90;;;;;;4943899;29;20059;-95
2024/01/01 13:21:15;;;;;;;12.13;3.75;;;8.60;99.90;;;;;;4942747;29;20055;-92
2024/01/01 13:23:41;;;;;;;17.57;5.90;;;9.10;99.90;;;;;;4958897;23;20071;-96
2024/01/01 13:34:53;;;;;;;15.93;5.33;;;8.60;99.90;;;;;;5069974;23;20051;-94
2024/01/01 13:44:35;;;;;;;17.10;5.07;;;7.60;99.90;;;;;;4918378;23;20159;-94
2024/01/01 13:47:07;;;;;;;17.43;8.03;;;8.50;99.90;;;;;;4926354;23;20038;-95
2024/01/01 13:50:45;;;;;;;14.17;5.47;;;7.60;99.90;;;;;;4968855;28;20074;-96
2024/01/01 13:53:16;;;;;;;17.57;8.47;;;7.80;99.90;;;;;;4961986;28;20054;-96
2024/01/01 14:09:35;;;;;;;22.97;6.67;;;7.70;99.90;;;;;;4959732;29;20234;-96
2024/01/01 14:12:04;;;;;;;20.48;10.75;;;9.00;99.90;;;;;;4939330;29;20054;-96
2024/01/01 14:14:56;;;;;;;23.20;10.37;;;7.40;99.90;;;;;;4930503;23;20060;-96
2024/01/01 14:17:44;;;;;;;36.57;21.30;;;7.50;99.90;;;;;;4919239;29;20381;-96
2024/01/01 14:20:22;;;;;;;12.77;2.50;;;6.60;99.90;;;;;;5177992;23;20057;-91
2024/01/01 14:22:49;;;;;;;14.07;3.93;;;8.60;99.90;;;;;;4957022;28;20043;-91
2024/01/01 14:25:15;;;;;;;14.37;4.20;;;7.10;99.90;;;;;;4957321;28;20495;-93
2024/01/01 14:27:54;;;;;;;13.93;3.93;;;8.30;99.90;;;;;;4960372;28;20047;-96
2024/01/01 14:42:29;;;;;;;10.97;2.60;;;7.30;99.90;;;;;;4920407;29;20040;-93
2024/01/01 14:45:21;;;;;;;11.47;4.23;;;7.70;99.90;;;;;;4911766;29;20052;-94
2024/01/01 15:01:00;;;;;;;16.90;4.83;;;7.30;99.90;;;;;;1424017;23;20333;-95
2024/01/01 15:04:01;;;;;;;14.33;3.83;;;6.60;99.90;;;;;;4899292;29;20049;-96
2024/01/01 15:06:30;;;;;;;29.40;18.43;;;8.70;99.90;;;;;;4884159;29;20126;-95
2024/01/01 15:22:21;;;;;;;15.77;4.87;;;6.40;99.90;;;;;;5030346;23;20047;-96
2024/01/01 15:25:23;;;;;;;23.67;12.97;;;6.70;99.90;;;;;;4947897;29;20048;-96
2024/01/01 15:31:41;;;;;;;23.77;8.10;;;6.90;99.90;;;;;;4932271;23;20080;-96
2024/01/01 15:34:22;;;;;;;14.00;5.30;;;6.80;99.90;;;;;;4889339;29;20091;-95
2024/01/01 15:37:23;;;;;;;11.87;3.63;;;7.90;99.90;;;;;;4890878;29;20048;-95
2024/01/01 15:39:49;;;;;;;16.50;5.97;;;7.30;99.90;;;;;;4887973;29;20048;-94
2024/01/01 15:42:14;;;;;;;39.60;14.93;;;7.80;99.90;;;;;;4885936;29;20049;-87
2024/01/01 15:44:47;;;;;;;54.33;23.17;;;6.60;99.90;;;;;;4888641;29;20064;-93
2024/01/01 15:47:52;;;;;;;24.13;11.43;;;6.10;99.90;;;;;;4896592;29;20052;-96
2024/01/01 15:50:28;;;;;;;8.87;2.90;;;6.30;99.90;;;;;;4918856;23;20035;-96
2024/01/01 15:53:22;;;;;;;6.53;1.55;;;6.60;99.90;;;;;;4942933;28;20071;-96
2024/01/01 15:58:27;;;;;;;10.70;1.90;;;6.60;99.90;;;;;;5198016;23;19946;-96
2024/01/01 16:01:26;;;;;;;5.23;1.77;;;7.70;99.90;;;;;;4933553;29;20048;-90
2024/01/01 16:03:54;;;;;;;8.77;1.70;;;6.40;99.90;;;;;;4840571;29;20068;-88
2024/01/01 16:07:00;;;;;;;12.27;2.53;;;7.90;99.90;;;;;;4844034;29;20067;-87
2024/01/01 16:09:26;;;;;;;13.90;3.40;;;6.90;99.90;;;;;;4820751;29;20117;-88
2024/01/01 16:11:53;;;;;;;10.67;2.57;;;7.30;99.90;;;;;;4844748;29;20053;-88
2024/01/01 16:14:53;;;;;;;;;;;;;;;;;;;;;
2024/01/01 16:17:49;;;;;;;26.93;14.13;;;6.60;99.90;;;;;;4863573;29;20044;-87
2024/01/01 16:20:30;;;;;;;15.02;4.63;;;7.00;99.90;;;;;;4869841;29;20068;-86
2024/01/01 16:27:10;;;;;;;13.90;3.70;;;7.80;99.90;;;;;;4921326;29;20052;-87
2024/01/01 16:29:42;;;;;;;12.40;2.60;;;7.20;99.90;;;;;;4921139;29;20056;-86
2024/01/01 16:32:07;;;;;;;9.87;2.63;;;6.80;99.90;;;;;;4920506;29;20043;-84
2024/01/01 16:34:33;;;;;;;8.83;2.70;;;8.30;99.90;;;;;;4921383;29;20051;-85
2024/01/01 16:37:21;;;;;;;13.70;2.83;;;8.20;99.90;;;;;;4917100;29;20055;-84
2024/01/01 16:39:47;;;;;;;10.37;2.80;;;5.60;99.90;;;;;;4897792;29;20064;-84
2024/01/01 16:42:32;;;;;;;21.17;8.03;;;6.30;99.90;;;;;;5269057;23;20051;-84
2024/01/01 16:45:22;;;;;;;14.63;6.17;;;6.40;99.90;;;;;;4938527;29;20047;-85
2024/01/01 16:48:00;;;;;;;18.97;5.90;;;5.80;99.90;;;;;;4912117;29;20058;-85
2024/01/01 16:50:47;;;;;;;12.60;3.10;;;6.00;99.90;;;;;;4936970;28;20395;-85
2024/01/01 16:53:29;;;;;;;15.33;7.43;;;8.00;99.90;;;;;;4939248;29;20147;-86
2024/01/01 16:57:07;;;;;;;19.33;6.63;;;6.50;99.90;;;;;;4939966;29;20487;-91
2024/01/01 16:59:33;;;;;;;14.10;3.53;;;5.90;99.90;;;;;;4900047;29;20052;-89
2024/01/01 17:02:16;;;;;;;16.30;4.13;;;6.00;99.90;;;;;;4909628;29;20056;-88
2024/01/01 17:05:02;;;;;;;17.48;3.90;;;7.90;99.90;;;;;;4936062;28;20058;-89
2024/01/01 17:07:47;;;;;;;22.03;11.30;;;7.30;99.90;;;;;;4929552;29;20464;-89
2024/01/01 17:10:27;;;;;;;;;;;6.70;99.90;;;;;;4931589;29;20138;-89
2024/01/01 17:12:53;;;;;;;22.97;10.73;;;6.30;99.90;;;;;;4929033;29;20287;-89
2024/01/01 17:15:19;;;;;;;18.43;4.60;;;5.80;99.90;;;;;;4928137;29;20055;-88
2024/01/01 17:17:44;;;;;;;13.97;3.70;;;7.70;99.90;;;;;;4928236;29;20047;-88
2024/01/01 17:20:10;;;;;;;15.87;3.73;;;7.30;99.90;;;;;;4928922;28;20043;-88
2024/01/01 17:23:13;;;;;;;14.90;3.57;;;6.00;99.90;;;;;;4928970;29;20552;-88
2024/01/01 17:25:41;;;;;;;16.83;4.07;;;6.40;99.90;;;;;;4929902;29;20070;-88
2024/01/01 17:28:07;;;;;;;14.10;3.77;;;7.40;99.90;;;;;;4929356;29;20105;-89
2024/01/01 17:30:33;;;;;;;16.80;4.40;;;6.30;99.90;;;;;;4928485;29;20446;-89
2024/01/01 17:33:13;;;;;;;13.83;4.13;;;7.00;99.90;;;;;;4945122;28;20487;-89
2024/01/01 17:35:42;;;;;;;17.13;4.93;;;7.80;99.90;;;;;;4929739;29;20047;-88
2024/01/01 17:38:17;;;;;;;15.50;3.70;;;7.10;99.90;;;;;;4929730;29;20039;-88
2024/01/01 17:40:48;;;;;;;14.67;3.97;;;5.90;99.90;;;;;;4929686;29;20095;-89
2024/01/01 17:43:14;;;;;;;14.33;2.90;;;6.30;99.90;;;;;;4936618;29;20138;-88
2024/01/01 17:45:52;;;;;;;16.03;3.10;;;6.20;99.90;;;;;;4930145;29;20083;-89
2024/01/01 17:48:23;;;;;;;14.17;3.60;;;7.40;99.90;;;;;;4928953;29;20035;-88
2024/01/01 17:51:09;;;;;;;16.03;3.57;;;5.70;99.90;;;;;;4928640;28;20047;-88
2024/01/01 17:53:53;;;;;;;20.67;3.97;;;5.80;99.90;;;;;;4924928;29;20059;-88
2024/01/01 17:56:25;;;;;;;16.50;3.88;;;6.70;99.90;;;;;;4918469;29;20074;-88
2024/01/01 17:58:54;;;;;;;20.17;3.80;;;5.70;99.90;;;;;;4937420;29;20127;-89
2024/01/01 18:01:20;;;;;;;18.73;3.60;;;6.20;99.90;;;;;;4938769;29;20083;-88
2024/01/01 18:03:46;;;;;;;15.67;4.43;;;6.10;99.90;;;;;;4937300;29;20146;-89
2024/01/01 18:06:17;;;;;;;18.37;5.57;;;7.20;99.90;;;;;;4936790;28;20336;-89
2024/01/01 18:12:11;;;;;;;23.87;8.87;;;6.10;99.90;;;;;;4946177;29;20046;-89
2024/01/01 18:18:34;;;;;;;22.60;7.00;;;5.20;99.90;;;;;;4948100;29;20533;-88
2024/01/01 18:21:11;;;;;;;25.20;7.70;;;5.80;99.90;;;;;;4928336;29;20047;-89
2024/01/01 18:23:55;;;;;;;25.07;10.43;;;5.00;99.90;;;;;;4926101;29;20046;-89
2024/01/01 18:26:21;;;;;;;23.50;7.22;;;7.20;99.90;;;;;;4929185;29;20522;-89
2024/01/01 18:28:50;;;;;;;23.10;6.23;;;7.00;99.90;;;;;;4928637;28;20144;-90
2024/01/01 18:31:19;;;;;;;18.33;6.27;;;6.70;99.90;;;;;;4927534;29;20035;-90
2024/01/01 18:34:02;;;;;;;28.30;13.90;;;7.50;99.90;;;;;;4932871;29;20046;-91
2024/01/01 18:36:28;;;;;;;19.75;5.70;;;5.80;99.90;;;;;;4931149;29;20055;-89
2024/01/01 18:39:14;;;;;;;30.20;10.07;;;6.60;99.90;;;;;;4933574;28;20051;-89
2024/01/01 18:41:43;;;;;;;24.13;5.93;;;4.20;99.90;;;;;;4940621;28;20069;-89
2024/01/01 18:45:32;;;;;;;20.77;5.03;;;7.00;99.90;;;;;;4964579;29;20078;-89
2024/01/01 18:49:11;;;;;;;23.60;5.77;;;4.60;99.90;;;;;;4959657;23;20059;-89
2024/01/01 18:51:56;;;;;;;21.87;8.30;;;5.50;99.90;;;;;;4930869;29;20068;-88
2024/01/01 19:01:22;;;;;;;21.20;6.70;;;5.40;99.90;;;;;;5243984;23;20059;-90
2024/01/01 19:07:54;;;;;;;20.47;4.87;;;5.60;99.90;;;;;;4896627;29;20186;-91
2024/01/01 19:13:11;;;;;;;22.80;6.53;;;5.20;99.90;;;;;;5027049;23;20092;-90
2024/01/01 19:15:43;;;;;;;18.27;5.70;;;6.90;99.90;;;;;;4937487;29;20106;-91
2024/01/01 19:32:32;;;;;;;19.02;5.28;;;5.40;99.90;;;;;;4924760;29;20107;-91
2024/01/01 19:35:13;;;;;;;17.80;5.27;;;5.30;99.90;;;;;;4923414;29;20043;-91
2024/01/01 19:41:05;;;;;;;19.50;5.00;;;6.50;99.90;;;;;;4977111;23;20513;-89
2024/01/01 19:43:34;;;;;;;19.17;5.87;;;5.40;99.90;;;;;;4936869;29;20467;-89
2024/01/01 19:53:36;;;;;;;23.00;5.60;;;6.30;99.90;;;;;;4899867;29;20537;-91
2024/01/01 19:56:48;;;;;;;20.58;6.70;;;5.20;99.90;;;;;;4888259;29;20399;-92
2024/01/01 20:03:02;;;;;;;21.33;5.97;;;5.20;99.90;;;;;;4872315;29;20048;-92
2024/01/01 20:05:59;;;;;;;20.60;5.50;;;5.30;99.90;;;;;;4882537;29;20045;-91
2024/01/01 20:08:33;;;;;;;19.23;5.43;;;4.80;99.90;;;;;;4896741;29;20170;-89
2024/01/01 20:10:59;;;;;;;22.27;6.73;;;6.70;99.90;;;;;;4947896;23;20054;-90
2024/01/01 20:13:25;;;;;;;18.10;5.50;;;6.20;99.90;;;;;;4959256;28;20043;-89
2024/01/01 20:16:06;;;;;;;21.00;6.30;;;5.30;99.90;;;;;;4959568;28;20046;-91
2024/01/01 20:25:41;;;;;;;26.00;7.63;;;6.20;99.90;;;;;;5459007;23;20066;-90
2024/01/01 20:28:28;;;;;;;19.63;6.20;;;6.50;99.90;;;;;;4945667;23;20508;-88
2024/01/01 20:31:01;;;;;;;20.50;5.50;;;4.80;99.90;;;;;;4934709;28;20104;-88
2024/01/01 20:40:37;;;;;;;22.80;6.27;;;5.50;99.90;;;;;;5025690;23;20114;-88
2024/01/01 20:44:13;;;;;;;19.73;5.90;;;4.70;99.90;;;;;;4924714;28;20055;-87
2024/01/01 20:46:41;;;;;;;26.48;7.22;;;5.40;99.90;;;;;;4937661;23;20066;-87
2024/01/01 20:49:07;;;;;;;24.90;6.53;;;5.20;99.90;;;;;;4937994;28;20051;-90
2024/01/01 20:51:48;;;;;;;18.10;6.50;;;5.10;99.90;;;;;;4933077;29;20109;-88
2024/01/01 20:54:29;;;;;;;22.57;6.20;;;6.40;99.90;;;;;;4931828;23;20056;-88
2024/01/01 20:57:04;;;;;;;21.23;5.93;;;6.30;99.90;;;;;;4917660;29;20046;-87
2024/01/01 20:59:36;;;;;;;22.17;5.30;;;5.50;99.90;;;;;;4921676;29;20079;-88
2024/01/01 21:02:21;;;;;;;25.00;6.30;;;5.30;99.90;;;;;;4921049;29;20500;-88
2024/01/01 21:04:49;;;;;;;;;;;4.60;99.90;;;;;;4921123;29;20135;-87
2024/01/01 21:07:34;;;;;;;21.07;5.83;;;5.10;99.90;;;;;;4923289;29;20022;-88
2024/01/01 21:10:12;;;;;;;20.17;5.77;;;5.10;99.90;;;;;;4921232;29;20071;-87
2024/01/01 21:12:46;;;;;;;20.73;5.23;;;5.20;99.90;;;;;;4920911;29;20115;-88
2024/01/01 21:15:32;;;;;;;22.63;5.32;;;5.00;99.90;;;;;;4921154;29;20047;-88
2024/01/01 21:18:23;;;;;;;18.03;5.07;;;5.10;99.90;;;;;;4916008;29;20039;-88
2024/01/01 21:21:05;;;;;;;20.20;5.50;;;5.80;99.90;;;;;;4943376;29;20043;-87
2024/01/01 21:27:17;;;;;;;20.30;5.23;;;5.40;99.90;;;;;;5245300;23;20067;-88
2024/01/01 21:29:43;;;;;;;18.87;5.07;;;4.60;99.90;;;;;;4934310;29;20031;-87
2024/01/01 21:36:06;;;;;;;19.57;4.80;;;5.10;99.90;;;;;;4916277;29;20520;-88
2024/01/01 21:38:50;;;;;;;16.50;4.90;;;5.00;99.90;;;;;;4919710;29;20055;-88
2024/01/01 21:41:27;;;;;;;19.90;4.77;;;4.70;99.90;;;;;;4900888;29;20055;-89
2024/01/01 21:44:11;;;;;;;14.23;4.00;;;3.80;99.90;;;;;;4901513;29;20052;-81
2024/01/01 21:46:40;;;;;;;23.20;4.83;;;4.50;99.90;;;;;;4901832;29;20048;-88
2024/01/01 21:49:15;;;;;;;15.90;4.10;;;5.10;99.90;;;;;;4900887;29;20044;-87
2024/01/01 21:51:47;;;;;;;16.13;4.17;;;5.70;99.90;;;;;;4893458;29;20048;-88
2024/01/01 21:54:16;;;;;;;15.50;4.43;;;4.90;99.90;;;;;;4888745;29;20037;-88
2024/01/01 21:57:07;;;;;;;14.90;3.90;;;5.10;99.90;;;;;;4915096;23;20048;-88
2024/01/01 21:59:38;;;;;;;13.73;4.00;;;5.00;99.90;;;;;;4930364;29;20047;-89
2024/01/01 22:02:26;;;;;;;17.80;3.97;;;6.20;99.90;;;;;;4932302;29;20039;-89
2024/01/01 22:04:53;;;;;;;14.77;3.77;;;5.20;99.90;;;;;;4929423;29;20047;-89
2024/01/01 22:07:19;;;;;;;17.33;3.90;;;6.70;99.90;;;;;;4931381;29;20039;-88
2024/01/01 22:09:47;;;;;;;14.63;3.53;;;4.60;99.90;;;;;;4927121;29;20400;-89
2024/01/01 22:12:18;;;;;;;14.60;3.97;;;4.50;99.90;;;;;;4929390;29;20055;-89
2024/01/01 22:15:06;;;;;;;15.27;4.10;;;5.50;99.90;;;;;;5206211;23;20082;-90
2024/01/01 22:17:38;;;;;;;17.10;4.43;;;4.80;99.90;;;;;;4925113;28;20082;-88
2024/01/01 22:20:34;;;;;;;19.00;4.83;;;6.40;99.90;;;;;;4925154;29;20051;-89
2024/01/01 22:23:05;;;;;;;15.90;4.93;;;5.00;99.90;;;;;;4910884;29;20040;-88
2024/01/01 22:26:10;;;;;;;17.20;4.37;;;4.60;99.90;;;;;;4927974;29;20043;-89
2024/01/01 22:28:51;;;;;;;15.55;4.40;;;3.90;99.90;;;;;;4917166;29;20395;-88
2024/01/01 22:31:20;;;;;;;16.80;3.80;;;6.30;99.90;;;;;;4929054;29;20046;-90
2024/01/01 22:33:52;;;;;;;16.23;4.60;;;4.90;99.90;;;;;;4936035;28;20040;-89
2024/01/01 22:36:18;;;;;;;17.63;4.33;;;6.40;99.90;;;;;;4917065;29;20126;-91
2024/01/01 22:38:46;;;;;;;20.27;4.73;;;4.50;99.90;;;;;;4918714;29;20107;-91
2024/01/01 22:41:12;;;;;;;15.97;4.30;;;4.60;99.90;;;;;;4936047;28;20059;-91
2024/01/01 22:43:37;;;;;;;12.53;3.93;;;4.80;99.90;;;;;;4918513;29;20044;-91
2024/01/01 22:46:31;;;;;;;21.73;4.47;;;6.40;99.90;;;;;;4935850;29;20046;-91
2024/01/01 22:48:56;;;;;;;15.30;4.10;;;4.00;99.90;;;;;;4922925;23;20146;-91
2024/01/01 22:51:22;;;;;;;15.03;4.57;;;6.40;99.90;;;;;;4947129;29;20156;-91
2024/01/01 22:53:48;;;;;;;19.13;3.80;;;4.60;99.90;;;;;;4917487;29;20040;-91
2024/01/01 22:56:17;;;;;;;21.83;5.57;;;6.20;99.90;;;;;;4947798;29;20051;-91
2024/01/01 23:02:04;;;;;;;15.13;4.23;;;6.60;99.90;;;;;;4939349;29;20047;-92
2024/01/01 23:04:36;;;;;;;12.93;3.33;;;4.80;99.90;;;;;;4944166;23;20064;-91
2024/01/01 23:11:43;;;;;;;10.80;3.03;;;4.70;99.90;;;;;;4921410;29;20056;-91
2024/01/01 23:18:03;;;;;;;13.33;3.20;;;5.20;99.90;;;;;;4921755;29;20180;-92
2024/01/01 23:20:29;;;;;;;14.53;3.30;;;4.90;99.90;;;;;;4922482;29;20087;-91
2024/01/01 23:23:25;;;;;;;17.70;3.77;;;5.20;99.90;;;;;;4939805;29;20485;-92
2024/01/01 23:26:25;;;;;;;16.20;3.30;;;5.00;99.90;;;;;;4921822;29;20416;-92
2024/01/01 23:29:05;;;;;;;17.03;3.67;;;5.60;99.90;;;;;;4923213;29;20051;-93
2024/01/01 23:31:49;;;;;;;15.30;3.57;;;6.20;99.90;;;;;;4922982;29;20048;-92
2024/01/01 23:34:15;;;;;;;;;;;4.90;99.90;;;;;;4922253;29;20167;-91
2024/01/01 23:36:47;;;;;;;11.90;2.90;;;4.80;99.90;;;;;;4922124;29;19982;-92
2024/01/01 23:42:41;;;;;;;14.87;2.70;;;5.00;99.90;;;;;;4941562;29;20123;-92
2024/01/01 23:48:24;;;;;;;12.80;3.00;;;4.90;99.90;;;;;;4922021;29;20054;-91
2024/01/01 23:50:56;;;;;;;13.97;3.40;;;5.80;99.90;;;;;;4926024;29;20060;-91
2024/01/01 23:54:19;;;;;;;14.07;3.13;;;6.00;99.90;;;;;;4921770;29;20099;-92
2024/01/01 23:57:06;;;;;;;12.83;2.77;;;5.50;99.90;;;;;;4867019;29;20072;-92
